Time;durP1;ratioP1;P1;durP2;ratioP2;P2;SDS_P1;SDS_P2;PMS_P1;PMS_P2;Temp;Humidity;BMP_temperature;BMP_pressure;BME280_temperature;BME280_humidity;BME280_pressure;Samples;Min_cycle;Max_cycle;Signal;HPM_P1;HPM_P2
2023/03/25 00:01:14;;;;;;;3.85;0.85;;;20.10;60.20;;;;;;5073077;28;20041;-76
2023/03/25 00:03:49;;;;;;;3.35;0.63;;;20.10;60.20;;;;;;5039548;28;20097;-76
2023/03/25 00:06:15;;;;;;;2.67;0.70;;;20.10;60.20;;;;;;5073511;28;20037;-76
2023/03/25 00:08:41;;;;;;;3.90;0.73;;;20.10;60.20;;;;;;5073241;28;20444;-76
2023/03/25 00:11:07;;;;;;;3.17;0.90;;;20.00;60.10;;;;;;5055207;28;20075;-76
2023/03/25 00:13:34;;;;;;;3.00;0.80;;;20.00;60.10;;;;;;5055435;28;20048;-76
2023/03/25 00:16:00;;;;;;;2.38;0.60;;;20.00;60.10;;;;;;5054825;28;20048;-76
2023/03/25 00:18:28;;;;;;;3.10;0.68;;;20.00;60.10;;;;;;5073581;28;20044;-76
2023/03/25 00:20:54;;;;;;;2.15;0.75;;;20.00;60.20;;;;;;5072888;28;20151;-76
2023/03/25 00:23:19;;;;;;;3.03;0.90;;;20.00;60.10;;;;;;5073098;28;20448;-76
2023/03/25 00:25:45;;;;;;;4.00;0.88;;;20.00;60.10;;;;;;5073346;28;20052;-76
2023/03/25 00:28:12;;;;;;;3.70;0.80;;;19.90;60.10;;;;;;5054863;28;20048;-76
2023/03/25 00:30:38;;;;;;;2.28;0.60;;;19.90;60.10;;;;;;5055074;28;20040;-77
2023/03/25 00:33:04;;;;;;;1.83;0.60;;;19.90;60.00;;;;;;5072581;28;20044;-76
2023/03/25 00:35:29;;;;;;;2.50;0.60;;;19.90;60.00;;;;;;5072316;28;20040;-76
2023/03/25 00:38:01;;;;;;;1.50;0.60;;;19.90;60.10;;;;;;5055348;28;20052;-76
2023/03/25 00:40:28;;;;;;;2.10;0.77;;;19.90;60.00;;;;;;5055187;28;20119;-76
2023/03/25 00:42:54;;;;;;;2.65;0.65;;;19.90;60.00;;;;;;5072447;28;20052;-76
2023/03/25 00:45:20;;;;;;;3.28;0.77;;;19.90;60.00;;;;;;5055077;28;20036;-76
2023/03/25 00:47:45;;;;;;;3.50;0.82;;;19.90;60.00;;;;;;5071599;28;20381;-75
2023/03/25 00:50:11;;;;;;;2.60;0.82;;;19.80;60.00;;;;;;5053986;28;20105;-75
2023/03/25 00:52:36;;;;;;;3.17;0.75;;;19.90;60.00;;;;;;5072834;28;20047;-76
2023/03/25 00:55:03;;;;;;;4.07;0.90;;;19.80;60.00;;;;;;5072704;28;20075;-75
2023/03/25 00:57:29;;;;;;;3.42;0.80;;;19.80;59.90;;;;;;5072167;28;20440;-75
2023/03/25 00:59:54;;;;;;;2.38;0.90;;;19.80;59.90;;;;;;5055340;28;20577;-76
2023/03/25 01:02:20;;;;;;;3.65;0.88;;;19.90;59.90;;;;;;5054795;28;20097;-76
2023/03/25 01:04:48;;;;;;;4.20;0.73;;;19.80;59.90;;;;;;5054086;28;20049;-76
2023/03/25 01:07:14;;;;;;;3.80;1.00;;;19.80;59.90;;;;;;5072579;28;20045;-76
2023/03/25 01:09:40;;;;;;;2.33;0.80;;;19.80;59.80;;;;;;5054769;28;20547;-76
2023/03/25 01:12:06;;;;;;;4.07;1.10;;;19.80;59.80;;;;;;5053857;28;20045;-76
2023/03/25 01:14:32;;;;;;;3.28;0.80;;;19.80;59.80;;;;;;5072984;28;20049;-75
2023/03/25 01:16:58;;;;;;;2.92;0.70;;;19.80;59.80;;;;;;5054291;28;20123;-75
2023/03/25 01:19:23;;;;;;;3.60;0.98;;;19.70;59.70;;;;;;5053909;28;20048;-76
2023/03/25 01:21:49;;;;;;;3.22;0.90;;;19.70;59.70;;;;;;5072878;28;20041;-76
2023/03/25 01:24:15;;;;;;;2.08;0.73;;;19.70;59.70;;;;;;5071214;28;20068;-76
2023/03/25 01:26:42;;;;;;;2.63;0.68;;;19.70;59.70;;;;;;5054215;28;20041;-75
2023/03/25 01:29:09;;;;;;;2.42;0.88;;;19.80;59.70;;;;;;5071841;28;20044;-75
2023/03/25 01:31:34;;;;;;;3.10;0.90;;;19.70;59.70;;;;;;5071232;28;20044;-76
2023/03/25 01:34:00;;;;;;;5.22;1.05;;;19.70;59.60;;;;;;5072328;28;20041;-76
2023/03/25 01:36:28;;;;;;;1.95;0.70;;;19.70;59.60;;;;;;5072468;28;20119;-75
2023/03/25 01:38:54;;;;;;;2.47;0.70;;;19.70;59.60;;;;;;5053669;28;20052;-75
2023/03/25 01:41:20;;;;;;;3.08;0.73;;;19.70;59.60;;;;;;5054112;28;20052;-75
2023/03/25 01:44:01;;;;;;;2.60;0.75;;;19.70;59.60;;;;;;5054768;28;20115;-75
2023/03/25 01:46:26;;;;;;;3.88;0.90;;;19.70;59.50;;;;;;5071795;28;20059;-75
2023/03/25 01:48:52;;;;;;;1.83;0.70;;;19.70;59.60;;;;;;5072431;28;20149;-75
2023/03/25 01:51:20;;;;;;;2.83;0.80;;;19.70;59.60;;;;;;5071963;28;20423;-75
2023/03/25 01:53:46;;;;;;;2.85;0.80;;;19.70;59.50;;;;;;5037084;28;20049;-75
2023/03/25 01:56:14;;;;;;;3.28;0.90;;;19.70;59.50;;;;;;5054204;28;20032;-75
2023/03/25 01:58:40;;;;;;;2.38;0.80;;;19.70;59.50;;;;;;5054278;28;20047;-75
2023/03/25 02:01:06;;;;;;;2.22;0.88;;;19.70;59.50;;;;;;5053154;28;20048;-76
2023/03/25 02:03:35;;;;;;;2.63;0.80;;;19.60;59.50;;;;;;5054676;28;20476;-76
2023/03/25 02:06:06;;;;;;;2.67;0.77;;;19.60;59.50;;;;;;5072212;28;20087;-76
2023/03/25 02:08:36;;;;;;;2.70;0.70;;;19.60;59.50;;;;;;5053747;28;20086;-76
2023/03/25 02:11:02;;;;;;;2.08;0.70;;;19.60;59.50;;;;;;5037328;28;20083;-76
2023/03/25 02:13:27;;;;;;;2.53;0.70;;;19.60;59.50;;;;;;5053609;28;20076;-76
2023/03/25 02:16:18;;;;;;;1.88;0.82;;;19.60;59.40;;;;;;5054420;28;20048;-76
2023/03/25 02:18:46;;;;;;;2.15;0.60;;;19.60;59.30;;;;;;5071574;28;20541;-76
2023/03/25 02:21:17;;;;;;;;;;;19.60;59.40;;;;;;5071111;28;20055;-75
2023/03/25 02:24:08;;;;;;;4.18;0.80;;;19.60;59.30;;;;;;5037372;28;19928;-76
2023/03/25 02:26:40;;;;;;;2.50;0.73;;;19.60;59.40;;;;;;5054081;28;20526;-76
2023/03/25 02:29:12;;;;;;;3.60;0.82;;;19.50;59.40;;;;;;5070870;28;20062;-76
2023/03/25 02:31:57;;;;;;;2.63;0.75;;;19.50;59.30;;;;;;5053490;28;20515;-76
2023/03/25 02:34:28;;;;;;;3.85;0.80;;;19.50;59.30;;;;;;5071290;28;20487;-75
2023/03/25 02:37:19;;;;;;;2.55;0.75;;;19.50;59.30;;;;;;5039541;28;20036;-75
2023/03/25 02:39:58;;;;;;;2.80;0.80;;;19.50;59.30;;;;;;5043846;28;20507;-76
2023/03/25 02:42:33;;;;;;;1.83;0.70;;;19.50;59.30;;;;;;5074960;28;20037;-76
2023/03/25 02:45:19;;;;;;;2.75;0.70;;;19.50;59.30;;;;;;5057245;28;20037;-75
2023/03/25 02:47:47;;;;;;;3.20;0.82;;;19.50;59.30;;;;;;5060686;28;20119;-76
2023/03/25 02:50:21;;;;;;;2.20;0.52;;;19.50;59.30;;;;;;5039901;28;20466;-76
2023/03/25 02:52:49;;;;;;;2.88;1.00;;;19.50;59.30;;;;;;5057535;28;20040;-76
2023/03/25 02:55:17;;;;;;;3.03;0.68;;;19.50;59.30;;;;;;5057593;28;20032;-75
2023/03/25 02:57:44;;;;;;;3.33;0.70;;;19.50;59.30;;;;;;5056880;28;20124;-75
2023/03/25 03:00:17;;;;;;;2.38;0.68;;;19.50;59.30;;;;;;5039391;28;20040;-75
2023/03/25 03:02:58;;;;;;;2.40;0.88;;;19.40;59.20;;;;;;5005511;28;20044;-75
2023/03/25 03:05:28;;;;;;;2.25;0.70;;;19.50;59.30;;;;;;5005490;28;20386;-75
2023/03/25 03:08:26;;;;;;;2.60;0.77;;;19.40;59.30;;;;;;5055333;28;20091;-75
2023/03/25 03:11:13;;;;;;;2.75;0.70;;;19.40;59.10;;;;;;4980032;28;20057;-75
2023/03/25 03:13:46;;;;;;;2.65;0.63;;;19.40;59.20;;;;;;5035301;28;20156;-76
2023/03/25 03:16:31;;;;;;;4.20;0.80;;;19.40;59.10;;;;;;5016922;28;20401;-75
2023/03/25 03:19:30;;;;;;;3.17;0.80;;;19.40;59.20;;;;;;5034185;28;20045;-75
2023/03/25 03:22:28;;;;;;;3.88;0.82;;;19.40;59.10;;;;;;5033844;28;20072;-75
2023/03/25 03:25:03;;;;;;;2.58;0.70;;;19.40;59.20;;;;;;5032843;28;20491;-75
2023/03/25 03:27:33;;;;;;;4.68;0.80;;;19.40;59.20;;;;;;5035125;28;20037;-75
2023/03/25 03:30:09;;;;;;;2.17;0.60;;;19.40;59.20;;;;;;5034273;28;20500;-75
2023/03/25 03:32:52;;;;;;;3.08;0.77;;;19.40;59.20;;;;;;5016329;28;20381;-75
2023/03/25 03:35:21;;;;;;;3.00;0.70;;;19.40;59.20;;;;;;5033605;28;20056;-75
2023/03/25 03:37:50;;;;;;;3.40;0.80;;;19.40;59.20;;;;;;5000300;28;20050;-75
2023/03/25 03:40:20;;;;;;;4.28;0.80;;;19.30;59.10;;;;;;5016559;28;20116;-75
2023/03/25 03:42:59;;;;;;;3.45;0.75;;;19.30;59.10;;;;;;5033212;28;20049;-75
2023/03/25 03:45:32;;;;;;;1.90;0.73;;;19.40;59.10;;;;;;5017606;28;20108;-75
2023/03/25 03:47:58;;;;;;;2.08;0.68;;;19.30;59.00;;;;;;5032381;28;20046;-76
2023/03/25 03:50:26;;;;;;;3.42;0.70;;;19.30;59.10;;;;;;5034364;28;20073;-76
2023/03/25 03:53:01;;;;;;;2.83;0.70;;;19.30;59.00;;;;;;5016160;28;20049;-75
2023/03/25 03:55:30;;;;;;;3.47;0.63;;;19.30;58.90;;;;;;5017026;28;20046;-75
2023/03/25 03:58:00;;;;;;;4.18;0.80;;;19.40;58.90;;;;;;5016875;28;20072;-76
2023/03/25 04:00:29;;;;;;;3.05;0.82;;;19.30;58.80;;;;;;5016284;28;20091;-75
2023/03/25 04:02:58;;;;;;;3.15;0.80;;;19.40;58.90;;;;;;5016589;28;20038;-75
2023/03/25 04:05:29;;;;;;;1.33;0.47;;;19.30;58.80;;;;;;5032993;28;20447;-75
2023/03/25 04:08:01;;;;;;;2.38;0.70;;;19.30;58.80;;;;;;5016745;28;20469;-76
2023/03/25 04:10:38;;;;;;;2.30;0.60;;;19.40;58.80;;;;;;5032580;28;20136;-75
2023/03/25 04:13:05;;;;;;;2.45;0.77;;;19.40;58.80;;;;;;5015948;28;20056;-76
2023/03/25 04:15:31;;;;;;;3.22;0.60;;;19.40;58.80;;;;;;5016470;28;20045;-76
2023/03/25 04:17:56;;;;;;;3.28;0.60;;;19.40;58.90;;;;;;5016041;28;20546;-76
2023/03/25 04:20:23;;;;;;;2.40;0.90;;;19.40;58.90;;;;;;5031506;28;20077;-75
2023/03/25 04:22:50;;;;;;;3.17;0.65;;;19.40;58.90;;;;;;5016127;28;20532;-75
2023/03/25 04:25:16;;;;;;;3.00;0.60;;;19.40;58.80;;;;;;5033664;28;20057;-76
2023/03/25 04:27:44;;;;;;;5.13;1.02;;;19.40;58.90;;;;;;5033311;28;20132;-77
2023/03/25 04:30:10;;;;;;;3.40;0.80;;;19.40;58.90;;;;;;5033334;28;20049;-76
2023/03/25 04:32:36;;;;;;;3.60;0.60;;;19.40;59.00;;;;;;5016236;28;20106;-76
2023/03/25 04:35:02;;;;;;;3.65;0.75;;;19.50;58.90;;;;;;5032308;28;20120;-76
2023/03/25 04:37:27;;;;;;;3.00;0.68;;;19.50;58.90;;;;;;5033690;28;20049;-76
2023/03/25 04:39:55;;;;;;;3.22;0.60;;;19.50;58.90;;;;;;5032206;28;20041;-76
2023/03/25 04:42:24;;;;;;;2.42;0.70;;;19.50;58.90;;;;;;5032452;28;20053;-76
2023/03/25 04:44:51;;;;;;;1.90;0.70;;;19.50;58.80;;;;;;5032969;28;20160;-76
2023/03/25 04:47:17;;;;;;;2.75;0.77;;;19.50;58.90;;;;;;5031694;28;20049;-76
2023/03/25 04:49:43;;;;;;;3.13;0.57;;;19.60;58.90;;;;;;5015178;28;20038;-76
2023/03/25 04:52:10;;;;;;;2.42;0.60;;;19.60;58.90;;;;;;5031568;28;20409;-76
2023/03/25 04:54:37;;;;;;;4.05;0.70;;;19.60;58.90;;;;;;5033417;28;20069;-76
2023/03/25 04:57:03;;;;;;;2.72;0.63;;;19.60;58.80;;;;;;5031900;28;20436;-76
2023/03/25 04:59:28;;;;;;;2.55;0.70;;;19.60;58.80;;;;;;5032550;28;20543;-76
2023/03/25 05:01:54;;;;;;;2.95;0.82;;;19.60;58.80;;;;;;5042771;28;20099;-76
2023/03/25 05:04:20;;;;;;;3.42;0.70;;;19.70;58.90;;;;;;5031920;28;20072;-75
2023/03/25 05:06:48;;;;;;;2.30;0.50;;;19.70;58.80;;;;;;5032628;28;20072;-76
2023/03/25 05:09:18;;;;;;;3.28;0.77;;;19.70;58.80;;;;;;5047109;28;20049;-76
2023/03/25 05:11:44;;;;;;;1.98;0.57;;;19.70;58.80;;;;;;5049847;28;20068;-76
2023/03/25 05:14:10;;;;;;;3.55;0.88;;;19.70;58.70;;;;;;5034470;28;20041;-76
2023/03/25 05:16:35;;;;;;;3.92;0.65;;;19.70;58.80;;;;;;5034262;28;20133;-75
2023/03/25 05:19:02;;;;;;;2.28;0.70;;;19.80;58.80;;;;;;5034629;28;20448;-76
2023/03/25 05:21:28;;;;;;;3.30;0.80;;;19.80;58.80;;;;;;5052863;28;20049;-75
2023/03/25 05:23:54;;;;;;;1.92;0.57;;;19.80;58.80;;;;;;5052127;28;20051;-75
2023/03/25 05:26:20;;;;;;;2.90;0.75;;;19.80;58.80;;;;;;5034498;28;20044;-75
2023/03/25 05:28:45;;;;;;;1.55;0.50;;;19.80;58.70;;;;;;5052823;28;20052;-75
2023/03/25 05:31:11;;;;;;;2.75;0.70;;;19.80;58.70;;;;;;5033186;28;20136;-75
2023/03/25 05:33:42;;;;;;;2.65;0.60;;;19.80;58.70;;;;;;5052747;28;20040;-75
2023/03/25 05:36:11;;;;;;;2.03;0.43;;;19.80;58.70;;;;;;5051947;28;20411;-75
2023/03/25 05:38:40;;;;;;;3.78;0.60;;;19.80;58.70;;;;;;5051740;28;20053;-76
2023/03/25 05:41:15;;;;;;;1.52;0.43;;;19.80;58.70;;;;;;5052089;28;20488;-75
2023/03/25 05:43:45;;;;;;;3.67;0.80;;;19.90;59.40;;;;;;5052445;28;20094;-75
2023/03/25 05:46:11;;;;;;;5.10;1.02;;;19.90;58.70;;;;;;5033751;28;20041;-75
2023/03/25 05:48:36;;;;;;;2.83;0.60;;;19.90;58.70;;;;;;5052514;28;20048;-75
2023/03/25 05:51:03;;;;;;;3.08;0.77;;;19.90;58.70;;;;;;5033856;28;20080;-75
2023/03/25 05:53:29;;;;;;;1.35;0.50;;;19.90;58.70;;;;;;5033996;28;20052;-75
2023/03/25 05:55:55;;;;;;;1.95;0.50;;;19.90;58.70;;;;;;5052615;28;20055;-75
2023/03/25 05:58:21;;;;;;;3.50;0.70;;;19.90;58.60;;;;;;5051204;28;20045;-75
2023/03/25 06:00:47;;;;;;;2.47;0.60;;;19.90;58.70;;;;;;5052211;28;20033;-75
2023/03/25 06:03:13;;;;;;;3.58;0.77;;;19.90;58.70;;;;;;5051995;28;20048;-75
2023/03/25 06:05:38;;;;;;;2.15;0.65;;;19.90;58.70;;;;;;5051658;28;20048;-76
2023/03/25 06:08:04;;;;;;;2.80;0.63;;;19.90;58.60;;;;;;5034077;28;20037;-76
2023/03/25 06:10:30;;;;;;;2.63;0.60;;;19.90;58.70;;;;;;5033971;28;20064;-75
2023/03/25 06:12:56;;;;;;;2.30;0.60;;;20.00;58.70;;;;;;5036858;28;20056;-75
2023/03/25 06:15:32;;;;;;;3.15;0.90;;;20.00;58.70;;;;;;5038433;28;20472;-75
2023/03/25 06:17:58;;;;;;;1.70;0.60;;;20.00;58.60;;;;;;5037651;28;20123;-76
2023/03/25 06:20:23;;;;;;;2.38;0.70;;;20.00;58.60;;;;;;5055197;28;20439;-76
2023/03/25 06:22:49;;;;;;;1.92;0.55;;;20.00;58.60;;;;;;5038189;28;20053;-75
2023/03/25 06:25:17;;;;;;;3.65;1.02;;;20.00;58.60;;;;;;5055475;28;20049;-75
2023/03/25 06:27:43;;;;;;;3.38;0.55;;;20.00;58.60;;;;;;5053957;28;20047;-75
2023/03/25 06:30:10;;;;;;;2.70;0.70;;;20.00;58.60;;;;;;5055364;28;20048;-76
2023/03/25 06:32:36;;;;;;;3.47;0.70;;;20.00;58.60;;;;;;5037880;28;20427;-75
2023/03/25 06:35:02;;;;;;;2.38;0.60;;;20.00;58.50;;;;;;5053254;28;20444;-75
2023/03/25 06:37:28;;;;;;;2.33;0.52;;;20.00;58.50;;;;;;5038008;28;20412;-75
2023/03/25 06:39:55;;;;;;;2.45;0.57;;;20.00;58.50;;;;;;5055444;28;20513;-75
2023/03/25 06:42:22;;;;;;;1.80;0.30;;;20.00;58.50;;;;;;5054931;28;20063;-76
2023/03/25 06:44:48;;;;;;;2.57;0.70;;;20.00;58.40;;;;;;5055427;28;20404;-75
2023/03/25 06:47:14;;;;;;;2.20;0.40;;;20.00;58.50;;;;;;5055304;28;20080;-75
2023/03/25 06:49:40;;;;;;;2.10;0.50;;;20.00;58.50;;;;;;5036912;28;20080;-75
2023/03/25 06:52:05;;;;;;;1.38;0.50;;;20.00;58.40;;;;;;5055045;28;20048;-75
2023/03/25 06:54:31;;;;;;;1.33;0.60;;;20.10;58.40;;;;;;5055148;28;20048;-75
2023/03/25 06:56:56;;;;;;;1.90;0.70;;;20.10;58.40;;;;;;5036990;28;20053;-76
2023/03/25 06:59:22;;;;;;;1.67;0.60;;;20.10;58.40;;;;;;5055167;28;20480;-75
2023/03/25 07:01:47;;;;;;;1.35;0.70;;;20.10;58.40;;;;;;5054580;28;20040;-76
2023/03/25 07:04:13;;;;;;;1.48;0.55;;;20.10;58.30;;;;;;5055015;28;20120;-76
2023/03/25 07:06:39;;;;;;;2.10;0.52;;;20.10;58.40;;;;;;5055113;28;20083;-76
2023/03/25 07:09:05;;;;;;;1.75;0.47;;;20.10;58.40;;;;;;5036115;28;20056;-76
2023/03/25 07:11:30;;;;;;;2.22;0.47;;;20.10;58.40;;;;;;5037009;28;20057;-76
2023/03/25 07:13:56;;;;;;;2.22;0.52;;;20.10;58.40;;;;;;5037310;28;20199;-76
2023/03/25 07:16:22;;;;;;;2.67;0.70;;;20.10;58.40;;;;;;5054017;28;20045;-76
2023/03/25 07:18:49;;;;;;;2.53;0.60;;;20.10;58.40;;;;;;5037216;28;20048;-77
2023/03/25 07:21:15;;;;;;;2.60;0.55;;;20.10;58.30;;;;;;5054619;28;20049;-77
2023/03/25 07:23:40;;;;;;;3.00;0.63;;;20.10;58.30;;;;;;5035407;28;20041;-76
2023/03/25 07:26:06;;;;;;;2.42;0.50;;;20.20;58.30;;;;;;5054678;28;20048;-76
2023/03/25 07:28:32;;;;;;;2.08;0.50;;;20.20;58.40;;;;;;5054853;28;20122;-76
2023/03/25 07:30:57;;;;;;;2.42;0.50;;;20.20;58.30;;;;;;5053467;28;20048;-70
2023/03/25 07:33:23;;;;;;;2.90;0.77;;;20.20;58.20;;;;;;5054784;28;20041;-74
2023/03/25 07:35:49;;;;;;;2.65;0.50;;;20.20;58.30;;;;;;5054797;28;20029;-74
2023/03/25 07:38:14;;;;;;;3.33;0.70;;;20.20;59.00;;;;;;5053608;28;20435;-74
2023/03/25 07:40:40;;;;;;;4.32;0.90;;;20.20;58.30;;;;;;5054597;28;20123;-73
2023/03/25 07:43:06;;;;;;;4.32;0.85;;;20.30;58.40;;;;;;5035810;28;20142;-73
2023/03/25 07:45:31;;;;;;;4.22;0.73;;;20.30;58.30;;;;;;5035989;28;20037;-73
2023/03/25 07:48:00;;;;;;;4.97;0.82;;;20.30;58.30;;;;;;5054256;28;20047;-73
2023/03/25 07:50:25;;;;;;;5.22;0.70;;;20.30;58.40;;;;;;5054368;28;20045;-73
2023/03/25 07:52:51;;;;;;;3.10;0.60;;;20.30;58.40;;;;;;5053393;28;20044;-73
2023/03/25 07:55:16;;;;;;;5.97;0.98;;;20.30;58.40;;;;;;5036137;28;20056;-73
2023/03/25 07:57:42;;;;;;;4.97;0.80;;;20.30;58.50;;;;;;5054511;28;20064;-77
2023/03/25 08:00:09;;;;;;;6.03;0.88;;;20.30;58.50;;;;;;5053398;28;20041;-70
2023/03/25 08:02:35;;;;;;;3.70;0.55;;;20.30;58.60;;;;;;5061321;28;20427;-69
2023/03/25 08:05:01;;;;;;;4.43;0.80;;;20.30;58.80;;;;;;5067293;28;20048;-70
2023/03/25 08:07:27;;;;;;;4.47;0.80;;;20.30;58.90;;;;;;5073809;28;20395;-68
2023/03/25 08:09:53;;;;;;;3.55;0.60;;;20.30;59.00;;;;;;5074024;28;20040;-67
2023/03/25 08:12:18;;;;;;;6.22;0.75;;;20.30;59.10;;;;;;5072578;28;20929;-63
2023/03/25 08:14:44;;;;;;;5.18;0.75;;;20.30;59.20;;;;;;5056133;28;20041;-63
2023/03/25 08:17:10;;;;;;;4.13;0.70;;;20.30;59.20;;;;;;5070138;28;20076;-67
2023/03/25 08:19:35;;;;;;;5.20;0.70;;;20.30;59.20;;;;;;5072890;28;20040;-71
2023/03/25 08:22:01;;;;;;;5.47;0.60;;;20.30;59.10;;;;;;5055219;28;20119;-73
2023/03/25 08:24:28;;;;;;;3.55;0.60;;;20.30;59.20;;;;;;5056244;28;20048;-74
2023/03/25 08:26:54;;;;;;;4.47;0.77;;;20.30;59.20;;;;;;5072981;28;20048;-72
2023/03/25 08:29:20;;;;;;;4.20;0.80;;;20.30;59.20;;;;;;5055299;28;20041;-70
2023/03/25 08:31:50;;;;;;;6.05;0.93;;;20.30;59.20;;;;;;5073447;28;20127;-70
2023/03/25 08:34:16;;;;;;;3.78;0.70;;;20.30;59.20;;;;;;5072178;28;20048;-70
2023/03/25 08:36:42;;;;;;;2.42;0.60;;;20.30;59.30;;;;;;5073446;28;20043;-69
2023/03/25 08:39:10;;;;;;;6.10;0.82;;;20.30;59.20;;;;;;5072882;28;20044;-68
2023/03/25 08:41:37;;;;;;;7.00;0.80;;;20.30;59.20;;;;;;5072785;28;20483;-69
2023/03/25 08:44:04;;;;;;;4.72;0.77;;;20.40;59.30;;;;;;5062103;28;20039;-70
2023/03/25 08:46:29;;;;;;;3.55;0.98;;;20.40;59.30;;;;;;5035605;28;20103;-71
2023/03/25 08:48:55;;;;;;;3.13;0.70;;;20.40;59.30;;;;;;5052479;28;20085;-70
2023/03/25 08:51:21;;;;;;;3.80;0.77;;;20.40;59.40;;;;;;5052581;28;20107;-70
2023/03/25 08:53:46;;;;;;;6.18;1.30;;;20.40;59.40;;;;;;5053452;28;20049;-69
2023/03/25 08:56:12;;;;;;;2.58;0.60;;;20.40;59.50;;;;;;5052222;28;20128;-68
2023/03/25 08:58:38;;;;;;;4.03;0.70;;;20.40;59.50;;;;;;5052630;28;20049;-68
2023/03/25 09:01:03;;;;;;;3.53;0.75;;;20.30;59.50;;;;;;5034813;28;20484;-71
2023/03/25 09:03:29;;;;;;;3.10;0.90;;;20.30;59.50;;;;;;5052360;28;20443;-70
2023/03/25 09:05:55;;;;;;;2.83;0.70;;;20.30;59.50;;;;;;5053124;28;20045;-71
2023/03/25 09:08:21;;;;;;;5.65;1.38;;;20.30;59.50;;;;;;5052138;28;20119;-70
2023/03/25 09:10:46;;;;;;;5.97;0.77;;;20.40;59.60;;;;;;5034677;28;20049;-70
2023/03/25 09:13:12;;;;;;;3.05;0.60;;;20.30;59.50;;;;;;5052280;28;20087;-69
2023/03/25 09:15:37;;;;;;;6.00;1.00;;;20.30;59.60;;;;;;5034147;28;20151;-70
2023/03/25 09:18:04;;;;;;;3.65;1.20;;;20.30;59.60;;;;;;5034419;28;20045;-72
2023/03/25 09:20:30;;;;;;;1.77;0.50;;;20.30;59.70;;;;;;5034305;28;20495;-71
2023/03/25 09:22:56;;;;;;;3.15;0.50;;;20.30;59.70;;;;;;5034101;28;20463;-72
2023/03/25 09:25:22;;;;;;;6.85;1.10;;;20.30;59.60;;;;;;5052454;28;20127;-69
2023/03/25 09:27:47;;;;;;;3.42;0.90;;;20.30;59.60;;;;;;5052628;28;20049;-69
2023/03/25 09:30:14;;;;;;;5.55;0.98;;;20.30;59.60;;;;;;5051367;28;20037;-69
2023/03/25 09:32:40;;;;;;;4.13;0.70;;;20.30;59.70;;;;;;5052355;28;20047;-69
2023/03/25 09:35:06;;;;;;;1.88;0.70;;;20.30;59.70;;;;;;5052112;28;20044;-70
2023/03/25 09:37:32;;;;;;;3.60;0.90;;;20.30;59.70;;;;;;5051840;28;20040;-69
2023/03/25 09:39:57;;;;;;;5.00;0.90;;;20.30;59.70;;;;;;5033220;28;20038;-68
2023/03/25 09:42:26;;;;;;;6.13;1.10;;;20.30;59.70;;;;;;5052752;28;20091;-67
2023/03/25 09:45:13;;;;;;;5.05;1.00;;;20.30;59.60;;;;;;5051350;28;20041;-70
2023/03/25 09:47:41;;;;;;;2.93;0.80;;;20.30;59.60;;;;;;5003277;28;20052;-69
2023/03/25 09:50:12;;;;;;;2.95;0.75;;;20.30;59.60;;;;;;5017594;28;20147;-70
2023/03/25 09:52:47;;;;;;;4.97;0.70;;;20.30;59.50;;;;;;5020319;28;20037;-68
2023/03/25 09:55:16;;;;;;;2.95;0.77;;;20.30;59.60;;;;;;5019684;28;20045;-68
2023/03/25 09:57:47;;;;;;;5.50;1.15;;;20.30;59.60;;;;;;5033710;28;20095;-71
2023/03/25 10:00:17;;;;;;;4.68;0.77;;;20.30;59.70;;;;;;5052261;28;20041;-71
2023/03/25 10:02:51;;;;;;;4.97;0.80;;;20.30;59.80;;;;;;5018240;28;20045;-71
2023/03/25 10:05:30;;;;;;;5.03;1.08;;;20.30;59.80;;;;;;5033359;28;20056;-71
2023/03/25 10:08:08;;;;;;;3.28;0.75;;;20.30;59.80;;;;;;5018768;28;20045;-72
2023/03/25 10:10:35;;;;;;;;;;;20.30;59.80;;;;;;5018663;28;20068;-70
2023/03/25 10:13:01;;;;;;;4.75;0.80;;;20.30;59.80;;;;;;5051318;28;20015;-72
2023/03/25 10:15:31;;;;;;;4.80;1.27;;;20.30;59.80;;;;;;5052150;28;20140;-66
2023/03/25 10:18:35;;;;;;;4.88;0.93;;;20.30;60.00;;;;;;5027142;28;20094;-70
2023/03/25 10:21:01;;;;;;;5.68;1.10;;;20.30;60.00;;;;;;5071340;28;20036;-70
2023/03/25 10:24:04;;;;;;;4.40;0.82;;;20.30;60.50;;;;;;5071783;28;20070;-70
2023/03/25 10:26:41;;;;;;;4.13;1.00;;;20.30;59.90;;;;;;5070966;28;20041;-68
2023/03/25 10:29:11;;;;;;;5.40;0.90;;;20.30;59.90;;;;;;5053710;28;20052;-74
2023/03/25 10:31:49;;;;;;;4.70;0.80;;;20.30;59.90;;;;;;5050023;28;20116;-72
2023/03/25 10:34:19;;;;;;;;;;;20.30;60.00;;;;;;5043884;28;20060;-71
2023/03/25 10:36:53;;;;;;;5.38;0.80;;;20.30;59.90;;;;;;5061670;28;19924;-72
2023/03/25 10:39:20;;;;;;;3.97;0.82;;;20.30;60.00;;;;;;5043967;28;20037;-75
2023/03/25 10:41:49;;;;;;;12.75;1.40;;;20.30;60.00;;;;;;5042389;28;20044;-74
2023/03/25 10:44:15;;;;;;;5.20;0.80;;;20.30;60.00;;;;;;5026169;28;20049;-72
2023/03/25 10:46:50;;;;;;;5.53;1.00;;;20.30;60.00;;;;;;5027650;28;20109;-74
2023/03/25 10:49:18;;;;;;;5.05;1.10;;;20.30;59.90;;;;;;5035336;28;20059;-71
2023/03/25 10:51:44;;;;;;;3.67;1.00;;;20.20;60.00;;;;;;5037334;28;20083;-72
2023/03/25 10:54:11;;;;;;;7.20;1.10;;;20.20;60.00;;;;;;5070290;28;20076;-71
2023/03/25 10:56:43;;;;;;;3.35;0.68;;;20.20;60.00;;;;;;5037482;28;20048;-70
2023/03/25 10:59:34;;;;;;;6.65;1.00;;;20.20;60.00;;;;;;5039933;28;20080;-71
2023/03/25 11:02:02;;;;;;;4.13;0.77;;;20.20;59.90;;;;;;5056671;28;20067;-70
2023/03/25 11:04:33;;;;;;;5.20;0.85;;;20.20;60.00;;;;;;5041108;28;20048;-71
2023/03/25 11:06:59;;;;;;;3.05;0.80;;;20.20;60.00;;;;;;5057426;28;20041;-71
2023/03/25 11:09:29;;;;;;;7.32;1.30;;;20.20;60.00;;;;;;5074533;28;20041;-72
2023/03/25 11:11:55;;;;;;;6.13;0.80;;;20.20;60.00;;;;;;5056733;28;20420;-70
2023/03/25 11:14:26;;;;;;;5.05;0.95;;;20.20;59.90;;;;;;5074746;28;20037;-71
2023/03/25 11:16:57;;;;;;;9.20;1.10;;;20.20;60.00;;;;;;5073947;28;20503;-69
2023/03/25 11:19:42;;;;;;;7.00;0.90;;;20.20;60.00;;;;;;5039405;28;20064;-73
2023/03/25 11:22:14;;;;;;;7.55;1.13;;;20.10;60.00;;;;;;5058229;28;20048;-73
2023/03/25 11:24:42;;;;;;;4.72;0.75;;;20.10;60.00;;;;;;5059169;28;20071;-74
2023/03/25 11:27:07;;;;;;;7.20;1.00;;;20.10;60.10;;;;;;5043474;28;20049;-75
2023/03/25 11:29:34;;;;;;;5.35;0.90;;;20.10;60.10;;;;;;5077341;28;20052;-75
2023/03/25 11:32:15;;;;;;;6.30;0.73;;;20.20;60.30;;;;;;5060272;28;20044;-74
2023/03/25 11:34:40;;;;;;;8.95;1.20;;;20.10;60.20;;;;;;5078019;28;20105;-72
2023/03/25 11:37:20;;;;;;;5.35;0.90;;;20.10;60.20;;;;;;5061225;28;20080;-72
2023/03/25 11:39:51;;;;;;;6.45;1.17;;;20.10;60.20;;;;;;5077099;28;20500;-73
2023/03/25 11:42:16;;;;;;;5.90;1.58;;;20.10;60.20;;;;;;5077238;28;20044;-72
2023/03/25 11:44:49;;;;;;;8.38;1.00;;;20.10;60.30;;;;;;5059842;28;20484;-72
2023/03/25 11:47:14;;;;;;;7.95;1.00;;;20.10;60.20;;;;;;5060403;28;20086;-71
2023/03/25 11:49:40;;;;;;;5.45;1.13;;;20.20;60.40;;;;;;5033934;28;20040;-74
2023/03/25 11:52:13;;;;;;;4.43;0.85;;;20.20;60.30;;;;;;5054603;28;20072;-73
2023/03/25 11:54:39;;;;;;;10.20;1.38;;;20.20;60.30;;;;;;5073844;28;20052;-72
2023/03/25 11:57:17;;;;;;;3.75;1.23;;;20.20;60.20;;;;;;5038148;28;20063;-73
2023/03/25 11:59:44;;;;;;;6.88;1.10;;;20.30;60.20;;;;;;5029041;28;20056;-73
2023/03/25 12:02:36;;;;;;;6.68;1.20;;;20.20;60.20;;;;;;5053173;28;20072;-73
2023/03/25 12:05:11;;;;;;;5.50;1.05;;;20.20;60.20;;;;;;5049395;28;20057;-73
2023/03/25 12:08:02;;;;;;;6.97;1.20;;;20.20;60.20;;;;;;5054051;28;20107;-73
2023/03/25 12:10:33;;;;;;;6.05;1.35;;;20.20;60.20;;;;;;5043925;28;20088;-74
2023/03/25 12:13:07;;;;;;;8.05;1.80;;;20.20;60.30;;;;;;5035198;28;20073;-74
2023/03/25 12:15:52;;;;;;;6.45;1.40;;;20.20;60.20;;;;;;5054142;28;20094;-73
2023/03/25 12:18:34;;;;;;;7.72;1.63;;;20.20;60.30;;;;;;5052691;28;20057;-74
2023/03/25 12:21:12;;;;;;;6.93;1.35;;;20.20;60.20;;;;;;5035803;28;20045;-69
2023/03/25 12:23:58;;;;;;;9.70;1.50;;;20.20;60.20;;;;;;5035880;28;20053;-75
2023/03/25 12:26:40;;;;;;;10.35;2.05;;;20.20;60.20;;;;;;5035418;28;20472;-73
2023/03/25 12:29:27;;;;;;;8.88;2.40;;;20.20;60.20;;;;;;5038434;28;20039;-77
2023/03/25 12:32:00;;;;;;;8.65;2.30;;;20.20;60.10;;;;;;5071179;28;20053;-69
2023/03/25 12:34:57;;;;;;;13.48;2.65;;;20.20;60.10;;;;;;5051873;28;20064;-75
2023/03/25 12:37:46;;;;;;;12.50;2.75;;;20.20;60.80;;;;;;5018503;28;20063;-74
2023/03/25 12:40:24;;;;;;;13.07;3.30;;;20.20;60.20;;;;;;5027776;28;20124;-75
2023/03/25 12:42:50;;;;;;;;;;;20.20;60.20;;;;;;5035915;28;20051;-74
2023/03/25 12:45:26;;;;;;;11.43;2.67;;;20.20;60.20;;;;;;5053139;28;20011;-74
2023/03/25 12:48:14;;;;;;;13.55;2.65;;;20.20;60.20;;;;;;5034415;28;20083;-69
2023/03/25 12:50:42;;;;;;;;;;;20.20;60.20;;;;;;5040560;28;20055;-71
2023/03/25 12:53:17;;;;;;;;;;;20.10;60.10;;;;;;5035562;28;20009;-74
2023/03/25 12:55:52;;;;;;;13.80;2.35;;;20.10;60.10;;;;;;5035137;28;19928;-73
2023/03/25 12:58:32;;;;;;;10.70;2.30;;;20.10;60.10;;;;;;5035295;28;20048;-73
2023/03/25 13:01:27;;;;;;;9.57;2.80;;;20.10;60.00;;;;;;5051762;28;20051;-73